Time;durP1;ratioP1;P1;durP2;ratioP2;P2;SDS_P1;SDS_P2;PMS_P1;PMS_P2;Temp;Humidity;BMP_temperature;BMP_pressure;BME280_temperature;BME280_humidity;BME280_pressure;Samples;Min_cycle;Max_cycle;Signal;HPM_P1;HPM_P2
2023/02/18 00:00:16;;;;;;;9.18;7.47;;;13.20;81.90;;;;;;4840218;29;20049;-78
2023/02/18 00:02:42;;;;;;;10.43;7.75;;;13.20;81.90;;;;;;4862278;29;20108;-79
2023/02/18 00:05:08;;;;;;;10.35;7.82;;;13.10;81.90;;;;;;4854398;29;20029;-79
2023/02/18 00:07:35;;;;;;;9.73;7.07;;;13.10;81.90;;;;;;4825933;29;20094;-79
2023/02/18 00:10:02;;;;;;;11.73;8.20;;;13.20;81.90;;;;;;4856429;29;20104;-80
2023/02/18 00:12:30;;;;;;;10.48;7.80;;;13.10;81.90;;;;;;4869078;29;20096;-80
2023/02/18 00:14:56;;;;;;;10.23;7.63;;;13.10;81.90;;;;;;4857902;29;20026;-81
2023/02/18 00:17:21;;;;;;;9.70;8.07;;;13.20;81.90;;;;;;4855768;29;20038;-80
2023/02/18 00:19:47;;;;;;;9.70;7.78;;;13.10;81.90;;;;;;4854613;29;20044;-80
2023/02/18 00:22:13;;;;;;;12.57;8.90;;;13.10;81.90;;;;;;4869221;29;20033;-79
2023/02/18 00:24:39;;;;;;;10.65;8.48;;;13.10;81.90;;;;;;4854621;29;20529;-79
2023/02/18 00:27:05;;;;;;;11.93;8.80;;;13.10;81.90;;;;;;4855060;29;20394;-80
2023/02/18 00:29:31;;;;;;;12.05;9.18;;;13.10;81.90;;;;;;4854135;29;20033;-79
2023/02/18 00:31:57;;;;;;;12.25;8.70;;;13.10;81.90;;;;;;4855789;29;20391;-80
2023/02/18 00:34:23;;;;;;;10.60;8.07;;;13.10;81.90;;;;;;4850554;29;20033;-79
2023/02/18 00:36:49;;;;;;;10.98;8.18;;;13.10;82.00;;;;;;4835874;29;20034;-79
2023/02/18 00:39:15;;;;;;;11.52;8.90;;;13.10;81.90;;;;;;4842218;29;20037;-79
2023/02/18 00:41:41;;;;;;;10.20;7.90;;;13.10;81.90;;;;;;4861214;29;20126;-80
2023/02/18 00:44:07;;;;;;;11.70;7.90;;;13.10;81.90;;;;;;4843176;29;20026;-80
2023/02/18 00:46:33;;;;;;;11.02;8.35;;;13.10;82.00;;;;;;4844200;29;20136;-80
2023/02/18 00:49:00;;;;;;;11.15;8.18;;;13.10;81.90;;;;;;4859272;29;20504;-80
2023/02/18 00:51:26;;;;;;;10.13;8.45;;;13.10;81.90;;;;;;4860016;29;20072;-80
2023/02/18 00:53:52;;;;;;;11.98;9.10;;;13.10;82.60;;;;;;4828833;29;20096;-80
2023/02/18 00:56:18;;;;;;;12.52;8.57;;;13.10;82.00;;;;;;4841378;29;20090;-79
2023/02/18 00:58:44;;;;;;;11.13;8.35;;;13.10;82.00;;;;;;4844301;29;20065;-80
2023/02/18 01:01:10;;;;;;;10.20;7.93;;;13.10;82.00;;;;;;4843632;29;20049;-79
2023/02/18 01:03:37;;;;;;;10.52;8.40;;;13.10;82.00;;;;;;4838160;29;20034;-80
2023/02/18 01:06:04;;;;;;;12.90;9.35;;;13.10;82.00;;;;;;4840540;29;20387;-81
2023/02/18 01:08:32;;;;;;;11.88;8.73;;;13.10;82.00;;;;;;4853421;29;20037;-81
2023/02/18 01:10:59;;;;;;;11.50;8.77;;;13.10;82.00;;;;;;4838509;29;20049;-80
2023/02/18 01:13:26;;;;;;;11.48;9.10;;;13.10;82.00;;;;;;4842059;29;20474;-80
2023/02/18 01:15:52;;;;;;;11.35;8.38;;;13.10;82.00;;;;;;4855117;29;20029;-81
2023/02/18 01:18:18;;;;;;;12.85;8.82;;;13.10;82.00;;;;;;4842209;29;20033;-82
2023/02/18 01:20:44;;;;;;;13.82;9.70;;;13.10;82.00;;;;;;4858090;29;20045;-80
2023/02/18 01:23:12;;;;;;;12.35;9.23;;;13.10;82.00;;;;;;4841430;29;20038;-79
2023/02/18 01:25:38;;;;;;;13.27;8.90;;;13.10;82.00;;;;;;4857176;29;20044;-79
2023/02/18 01:28:06;;;;;;;12.07;9.25;;;13.10;82.00;;;;;;4856271;29;20038;-80
2023/02/18 01:30:32;;;;;;;11.10;8.50;;;13.10;82.00;;;;;;4861541;29;20021;-79
2023/02/18 01:32:58;;;;;;;12.18;8.82;;;13.10;82.00;;;;;;4853928;29;20052;-79
2023/02/18 01:35:24;;;;;;;11.55;8.25;;;13.10;82.00;;;;;;4852122;29;20030;-79
2023/02/18 01:37:50;;;;;;;12.20;8.57;;;13.10;82.00;;;;;;4859605;29;20074;-79
2023/02/18 01:40:20;;;;;;;12.80;9.23;;;13.10;82.00;;;;;;4840744;29;20508;-79
2023/02/18 01:42:46;;;;;;;12.23;8.43;;;13.10;82.00;;;;;;4855654;29;20025;-79
2023/02/18 01:45:33;;;;;;;12.07;8.98;;;13.10;82.00;;;;;;4846710;29;20057;-78
2023/02/18 01:48:39;;;;;;;10.30;7.97;;;13.10;82.10;;;;;;4841770;29;20041;-79
2023/02/18 01:51:22;;;;;;;10.77;8.65;;;13.10;82.10;;;;;;4840189;29;20041;-79
2023/02/18 01:54:12;;;;;;;12.18;8.38;;;13.00;82.00;;;;;;4857483;29;20493;-78
2023/02/18 01:56:56;;;;;;;13.95;9.32;;;13.00;82.10;;;;;;4856359;29;20032;-81
2023/02/18 01:59:30;;;;;;;12.07;8.80;;;13.00;82.10;;;;;;4857871;29;20049;-79
2023/02/18 02:01:57;;;;;;;11.25;8.82;;;13.00;82.00;;;;;;4835582;29;20373;-79
2023/02/18 02:04:23;;;;;;;11.20;8.75;;;13.00;82.00;;;;;;4844251;29;20053;-79
2023/02/18 02:06:49;;;;;;;12.27;9.25;;;13.00;82.00;;;;;;4855810;29;20034;-79
2023/02/18 02:09:18;;;;;;;14.02;9.10;;;13.00;82.10;;;;;;4856623;29;20086;-79
2023/02/18 02:11:59;;;;;;;12.30;9.10;;;13.00;82.10;;;;;;4857797;29;20030;-79
2023/02/18 02:14:49;;;;;;;12.73;8.90;;;13.00;82.10;;;;;;4857676;29;20078;-79
2023/02/18 02:17:36;;;;;;;13.07;9.18;;;13.00;82.10;;;;;;4837633;29;20468;-79
2023/02/18 02:20:14;;;;;;;12.95;8.98;;;13.00;82.10;;;;;;4846277;29;20663;-79
2023/02/18 02:22:51;;;;;;;12.07;8.85;;;13.00;82.10;;;;;;4840141;29;20037;-81
2023/02/18 02:25:54;;;;;;;12.82;9.35;;;13.00;82.20;;;;;;4840742;29;20026;-79
2023/02/18 02:28:52;;;;;;;13.27;8.77;;;13.00;82.20;;;;;;4870738;29;20049;-78
2023/02/18 02:31:46;;;;;;;13.32;9.10;;;13.00;82.10;;;;;;4855368;29;20053;-79
2023/02/18 02:34:42;;;;;;;12.65;8.90;;;13.00;82.20;;;;;;4838076;29;20030;-79
2023/02/18 02:37:24;;;;;;;13.27;9.18;;;13.00;82.20;;;;;;4859372;29;20033;-80
2023/02/18 02:40:15;;;;;;;13.63;9.30;;;13.00;82.10;;;;;;4857317;29;20475;-80
2023/02/18 02:43:18;;;;;;;13.13;9.18;;;13.00;82.20;;;;;;4854414;29;20040;-80
2023/02/18 02:45:49;;;;;;;12.95;9.45;;;13.00;82.20;;;;;;4832112;29;20112;-80
2023/02/18 02:48:39;;;;;;;13.18;9.25;;;13.00;82.20;;;;;;4857763;29;20509;-78
2023/02/18 02:51:16;;;;;;;13.75;9.25;;;13.00;82.20;;;;;;4825163;29;20044;-79
2023/02/18 02:53:43;;;;;;;12.65;9.98;;;13.00;82.20;;;;;;4857564;29;20068;-82
2023/02/18 02:56:23;;;;;;;14.00;9.95;;;13.00;82.30;;;;;;4854694;29;20076;-79
2023/02/18 02:59:04;;;;;;;14.75;10.52;;;13.00;82.30;;;;;;4836122;29;20030;-80
2023/02/18 03:01:53;;;;;;;13.55;9.90;;;13.00;82.30;;;;;;4857291;29;20052;-79
2023/02/18 03:04:30;;;;;;;14.15;10.35;;;13.00;82.30;;;;;;4846172;29;20060;-79
2023/02/18 03:07:14;;;;;;;14.90;10.63;;;13.00;82.20;;;;;;4847296;29;20061;-79
2023/02/18 03:10:09;;;;;;;15.13;10.68;;;13.00;82.30;;;;;;4849971;29;20085;-79
2023/02/18 03:12:55;;;;;;;14.57;10.57;;;13.00;82.30;;;;;;4865190;29;20033;-79
2023/02/18 03:15:45;;;;;;;16.25;11.13;;;13.00;82.20;;;;;;4845916;29;20125;-80
2023/02/18 03:18:35;;;;;;;14.55;10.43;;;13.00;82.30;;;;;;4857396;29;20085;-80
2023/02/18 03:21:13;;;;;;;13.02;9.80;;;13.00;82.30;;;;;;4854789;29;20045;-79
2023/02/18 03:23:57;;;;;;;14.00;9.90;;;13.00;82.20;;;;;;4836407;29;20040;-80
2023/02/18 03:26:25;;;;;;;15.68;10.85;;;13.00;82.30;;;;;;4855900;29;20029;-80
2023/02/18 03:28:54;;;;;;;15.50;11.05;;;13.00;82.30;;;;;;4856317;29;20555;-79
2023/02/18 03:31:22;;;;;;;16.35;11.02;;;13.00;82.30;;;;;;4840695;29;20053;-79
2023/02/18 03:34:09;;;;;;;16.80;11.50;;;13.00;82.30;;;;;;4855450;29;20471;-79
2023/02/18 03:36:37;;;;;;;16.15;10.88;;;13.00;82.40;;;;;;4839922;29;20487;-79
2023/02/18 03:39:11;;;;;;;15.80;11.30;;;13.00;82.30;;;;;;4853437;29;20045;-79
2023/02/18 03:41:37;;;;;;;15.45;11.23;;;13.00;82.40;;;;;;4838506;29;20033;-80
2023/02/18 03:44:06;;;;;;;15.98;11.27;;;13.00;82.30;;;;;;4839381;29;20099;-79
2023/02/18 03:46:34;;;;;;;16.77;11.25;;;13.00;82.30;;;;;;4853847;29;20057;-80
2023/02/18 03:49:00;;;;;;;17.08;12.18;;;13.00;82.30;;;;;;4854363;29;20456;-80
2023/02/18 03:51:26;;;;;;;14.82;10.70;;;13.00;82.30;;;;;;4853691;29;20718;-79
2023/02/18 03:53:51;;;;;;;15.57;10.10;;;13.00;82.30;;;;;;4839239;29;20029;-79
2023/02/18 03:56:21;;;;;;;14.82;10.70;;;13.00;82.30;;;;;;4839056;29;20236;-79
2023/02/18 03:58:47;;;;;;;14.32;10.20;;;13.00;82.40;;;;;;4823998;29;20072;-80
2023/02/18 04:01:14;;;;;;;16.45;11.60;;;13.00;82.30;;;;;;4842886;29;20065;-79
2023/02/18 04:03:39;;;;;;;13.70;10.85;;;13.00;82.40;;;;;;4860988;29;20041;-78
2023/02/18 04:06:05;;;;;;;14.88;11.18;;;13.00;82.30;;;;;;4854008;29;20370;-78
2023/02/18 04:08:31;;;;;;;13.45;9.25;;;13.00;82.30;;;;;;4857857;29;20487;-78
2023/02/18 04:10:57;;;;;;;14.32;10.02;;;13.00;82.40;;;;;;4835567;29;20038;-79
2023/02/18 04:13:23;;;;;;;13.55;9.68;;;13.00;82.40;;;;;;4859656;29;20413;-79
2023/02/18 04:15:49;;;;;;;15.02;10.32;;;13.00;82.30;;;;;;4840011;29;20037;-79
2023/02/18 04:18:15;;;;;;;12.75;9.10;;;13.10;82.40;;;;;;4842538;29;20033;-79
2023/02/18 04:20:41;;;;;;;13.63;9.45;;;13.10;82.40;;;;;;4859081;29;20042;-80
2023/02/18 04:23:08;;;;;;;13.82;9.68;;;13.00;82.30;;;;;;4858935;29;20037;-80
2023/02/18 04:25:33;;;;;;;14.48;9.77;;;13.10;82.40;;;;;;4858762;29;20038;-78
2023/02/18 04:27:59;;;;;;;13.50;9.82;;;13.00;82.30;;;;;;4844178;29;20038;-79
2023/02/18 04:30:26;;;;;;;13.27;9.40;;;13.10;82.40;;;;;;4844354;29;20436;-78
2023/02/18 04:32:51;;;;;;;13.70;9.35;;;13.10;82.40;;;;;;4858746;29;20436;-80
2023/02/18 04:35:18;;;;;;;12.52;9.05;;;13.10;82.30;;;;;;4862075;29;20049;-79
2023/02/18 04:37:43;;;;;;;12.52;8.35;;;13.10;82.40;;;;;;4861847;29;20041;-79
2023/02/18 04:40:10;;;;;;;11.75;8.55;;;13.10;82.40;;;;;;4851417;29;20112;-79
2023/02/18 04:42:36;;;;;;;11.00;7.88;;;13.10;82.40;;;;;;4864098;29;20037;-80
2023/02/18 04:45:02;;;;;;;12.40;8.80;;;13.10;82.40;;;;;;4861891;29;20115;-79
2023/02/18 04:47:28;;;;;;;11.38;7.93;;;13.10;82.40;;;;;;4868030;29;20164;-78
2023/02/18 04:49:54;;;;;;;12.40;8.50;;;13.10;82.40;;;;;;4842072;29;20040;-79
2023/02/18 04:52:20;;;;;;;10.93;8.02;;;13.10;82.30;;;;;;4865784;29;20025;-79
2023/02/18 04:54:45;;;;;;;10.90;7.95;;;13.10;82.30;;;;;;4836453;29;20625;-80
2023/02/18 04:57:12;;;;;;;11.48;8.13;;;13.10;82.30;;;;;;4858215;29;20391;-79
2023/02/18 04:59:37;;;;;;;11.15;7.88;;;13.10;82.30;;;;;;4840827;29;20044;-80
2023/02/18 05:02:04;;;;;;;9.65;6.95;;;13.10;82.30;;;;;;4858667;29;20045;-80
2023/02/18 05:04:30;;;;;;;10.95;7.72;;;13.10;82.30;;;;;;4838723;29;20058;-80
2023/02/18 05:06:56;;;;;;;10.55;7.75;;;13.10;82.30;;;;;;4836218;29;20113;-79
2023/02/18 05:09:22;;;;;;;11.57;7.70;;;13.10;82.30;;;;;;4855556;29;20493;-80
2023/02/18 05:11:48;;;;;;;9.77;6.80;;;13.10;82.30;;;;;;4844005;29;20038;-79
2023/02/18 05:14:14;;;;;;;10.20;7.15;;;13.10;82.30;;;;;;4840706;29;20080;-80
2023/02/18 05:16:40;;;;;;;9.65;6.70;;;13.20;82.30;;;;;;4842102;29;20399;-80
2023/02/18 05:19:06;;;;;;;10.57;6.80;;;13.10;82.30;;;;;;4844009;29;20041;-79
2023/02/18 05:21:32;;;;;;;9.52;6.72;;;13.10;82.30;;;;;;4827276;29;20060;-80
2023/02/18 05:23:58;;;;;;;9.13;6.45;;;13.10;82.30;;;;;;4837604;29;20068;-79
2023/02/18 05:26:24;;;;;;;8.80;5.65;;;13.10;82.30;;;;;;4854340;29;20490;-79
2023/02/18 05:28:50;;;;;;;8.73;6.32;;;13.10;82.30;;;;;;4842379;29;20094;-82
2023/02/18 05:31:16;;;;;;;8.63;5.93;;;13.10;82.30;;;;;;4840823;29;20540;-79
2023/02/18 05:33:42;;;;;;;8.90;5.95;;;13.10;82.30;;;;;;4840526;29;20502;-81
2023/02/18 05:36:07;;;;;;;8.52;5.63;;;13.10;82.30;;;;;;4826305;29;20553;-79
2023/02/18 05:38:33;;;;;;;7.85;5.50;;;13.20;82.30;;;;;;4823720;29;20406;-78
2023/02/18 05:40:59;;;;;;;7.72;5.50;;;13.10;82.20;;;;;;4840513;29;20037;-79
2023/02/18 05:43:25;;;;;;;7.10;4.93;;;13.10;82.30;;;;;;4855036;29;20033;-80
2023/02/18 05:45:51;;;;;;;7.65;5.20;;;13.20;82.30;;;;;;4812535;29;1323325;-81
2023/02/18 05:48:17;;;;;;;6.82;4.45;;;13.20;82.30;;;;;;4857599;29;20034;-79
2023/02/18 05:50:42;;;;;;;7.18;4.85;;;13.20;82.30;;;;;;4856827;29;20972;-79
2023/02/18 05:53:08;;;;;;;6.93;4.50;;;13.20;82.30;;;;;;4863476;29;20089;-79
2023/02/18 05:55:37;;;;;;;6.43;4.45;;;13.10;82.20;;;;;;4859888;29;20036;-80
2023/02/18 05:58:04;;;;;;;6.25;4.53;;;13.20;82.30;;;;;;4857654;29;20050;-79
2023/02/18 06:00:30;;;;;;;6.57;4.10;;;13.20;82.20;;;;;;4857258;29;20141;-79
2023/02/18 06:02:57;;;;;;;6.20;4.30;;;13.20;82.20;;;;;;4843587;29;20499;-81
2023/02/18 06:05:23;;;;;;;6.20;4.07;;;13.20;82.30;;;;;;4855513;29;20098;-80
2023/02/18 06:07:49;;;;;;;5.80;3.88;;;13.20;82.20;;;;;;4824509;29;20479;-80
2023/02/18 06:10:16;;;;;;;6.25;4.30;;;13.20;82.20;;;;;;4860843;29;20044;-80
2023/02/18 06:12:42;;;;;;;5.80;3.70;;;13.20;82.20;;;;;;4855004;29;20044;-80
2023/02/18 06:15:08;;;;;;;5.70;3.83;;;13.20;82.20;;;;;;4840497;29;20029;-79
2023/02/18 06:17:34;;;;;;;6.10;4.10;;;13.20;82.20;;;;;;4860704;29;20039;-80
2023/02/18 06:20:00;;;;;;;5.70;3.55;;;13.20;82.20;;;;;;4862757;29;20546;-80
2023/02/18 06:22:26;;;;;;;5.07;2.92;;;13.20;82.20;;;;;;4839282;29;20036;-80
2023/02/18 06:24:52;;;;;;;4.95;3.20;;;13.20;82.20;;;;;;4828362;29;20033;-79
2023/02/18 06:27:17;;;;;;;5.13;3.35;;;13.20;82.20;;;;;;4855141;29;20485;-80
2023/02/18 06:29:43;;;;;;;5.03;3.25;;;13.20;82.20;;;;;;4854179;29;20045;-79
2023/02/18 06:32:09;;;;;;;5.32;3.13;;;13.20;82.20;;;;;;4824305;29;20455;-80
2023/02/18 06:34:35;;;;;;;5.97;3.70;;;13.20;82.20;;;;;;4842434;29;20029;-79
2023/02/18 06:37:01;;;;;;;4.85;3.35;;;13.20;82.20;;;;;;4832803;29;20062;-79
2023/02/18 06:39:26;;;;;;;4.72;3.10;;;13.20;82.20;;;;;;4848680;29;20034;-78
2023/02/18 06:41:52;;;;;;;4.28;3.00;;;13.20;82.20;;;;;;4845672;29;20017;-80
2023/02/18 06:44:18;;;;;;;4.05;2.63;;;13.20;82.20;;;;;;4831554;29;20501;-80
2023/02/18 06:46:46;;;;;;;4.13;2.90;;;13.20;82.20;;;;;;4836478;29;20521;-79
2023/02/18 06:49:12;;;;;;;3.88;2.78;;;13.30;82.20;;;;;;4838647;29;20069;-79
2023/02/18 06:51:38;;;;;;;3.95;2.63;;;13.20;82.20;;;;;;4828872;29;20596;-79
2023/02/18 06:54:04;;;;;;;4.60;3.15;;;13.20;82.20;;;;;;4864017;29;20044;-80
2023/02/18 06:56:30;;;;;;;3.83;2.78;;;13.20;82.20;;;;;;4859278;29;20061;-79
2023/02/18 06:58:56;;;;;;;3.97;2.72;;;13.20;82.20;;;;;;4856663;29;20069;-80
2023/02/18 07:01:22;;;;;;;4.15;2.75;;;13.20;82.20;;;;;;4854862;29;20033;-80
2023/02/18 07:03:48;;;;;;;3.90;2.47;;;13.20;82.30;;;;;;4859776;29;20557;-80
2023/02/18 07:06:13;;;;;;;3.55;2.45;;;13.20;82.30;;;;;;4844462;29;20567;-80
2023/02/18 07:08:39;;;;;;;3.45;2.60;;;13.20;82.20;;;;;;4855892;29;20695;-80
2023/02/18 07:11:06;;;;;;;3.85;2.67;;;13.20;82.20;;;;;;4838883;29;20081;-79
2023/02/18 07:13:32;;;;;;;3.92;2.45;;;13.20;82.30;;;;;;4864096;29;20406;-79
2023/02/18 07:15:57;;;;;;;4.30;2.60;;;13.20;82.30;;;;;;4858042;29;20026;-81
2023/02/18 07:18:23;;;;;;;3.60;2.50;;;13.20;82.30;;;;;;4827688;29;20132;-80
2023/02/18 07:20:49;;;;;;;3.10;2.50;;;13.20;82.30;;;;;;4840136;29;20037;-79
2023/02/18 07:23:15;;;;;;;3.75;2.50;;;13.20;82.30;;;;;;4822364;29;20033;-79
2023/02/18 07:25:41;;;;;;;3.90;2.30;;;13.20;82.30;;;;;;4845125;29;20498;-77
2023/02/18 07:28:06;;;;;;;3.00;2.22;;;13.20;82.30;;;;;;4866950;29;20064;-79
2023/02/18 07:30:32;;;;;;;3.95;2.67;;;13.20;82.20;;;;;;4864551;29;20041;-79
2023/02/18 07:32:58;;;;;;;3.70;2.35;;;13.20;82.30;;;;;;4840979;29;20038;-79
2023/02/18 07:35:24;;;;;;;3.63;2.40;;;13.20;82.90;;;;;;4838315;29;20132;-79
2023/02/18 07:37:50;;;;;;;4.00;2.67;;;13.20;82.30;;;;;;4856270;29;20510;-79
2023/02/18 07:40:18;;;;;;;3.67;2.58;;;13.20;82.30;;;;;;4853367;29;20029;-79
2023/02/18 07:42:44;;;;;;;3.67;2.47;;;13.20;82.30;;;;;;4858659;29;20068;-79
2023/02/18 07:45:11;;;;;;;3.67;2.35;;;13.20;82.30;;;;;;4840874;29;20061;-79
2023/02/18 07:47:37;;;;;;;3.38;2.47;;;13.20;82.30;;;;;;4843185;29;20057;-79
2023/02/18 07:50:05;;;;;;;3.90;2.70;;;13.20;82.30;;;;;;4856137;29;20113;-79
2023/02/18 07:52:31;;;;;;;4.57;3.15;;;13.20;82.30;;;;;;4860195;29;20025;-79
2023/02/18 07:54:56;;;;;;;4.18;2.80;;;13.20;82.30;;;;;;4841646;29;20085;-79
2023/02/18 07:57:22;;;;;;;4.53;3.28;;;13.20;82.30;;;;;;4855393;29;20048;-79
2023/02/18 07:59:48;;;;;;;4.22;2.95;;;13.20;82.20;;;;;;4852768;29;20026;-81
2023/02/18 08:02:20;;;;;;;5.28;3.30;;;13.20;82.20;;;;;;4822141;29;20041;-79
2023/02/18 08:04:47;;;;;;;4.13;2.95;;;13.20;82.30;;;;;;4856573;29;20033;-81
2023/02/18 08:07:14;;;;;;;3.78;2.78;;;13.20;82.20;;;;;;4840803;29;20108;-80
2023/02/18 08:09:40;;;;;;;4.00;2.90;;;13.20;82.20;;;;;;4860060;29;20061;-81
2023/02/18 08:12:06;;;;;;;4.05;2.85;;;13.20;82.20;;;;;;4842526;29;20061;-81
2023/02/18 08:14:35;;;;;;;5.05;3.08;;;13.20;82.20;;;;;;4830526;29;20042;-81
2023/02/18 08:17:01;;;;;;;4.22;3.17;;;13.20;82.30;;;;;;4843249;29;20033;-81
2023/02/18 08:19:27;;;;;;;5.78;3.08;;;13.20;82.20;;;;;;4857280;29;20033;-81
2023/02/18 08:21:53;;;;;;;3.83;2.80;;;13.20;82.30;;;;;;4833095;29;20061;-81
2023/02/18 08:24:18;;;;;;;4.28;3.20;;;13.20;82.20;;;;;;4864534;29;20033;-80
2023/02/18 08:26:47;;;;;;;4.53;3.22;;;13.20;82.20;;;;;;4844723;29;20093;-83
2023/02/18 08:29:13;;;;;;;3.85;2.88;;;13.20;82.20;;;;;;4827326;29;20072;-84
2023/02/18 08:31:39;;;;;;;4.25;3.17;;;13.20;82.20;;;;;;4841121;29;20040;-81
2023/02/18 08:34:05;;;;;;;5.10;2.85;;;13.20;82.20;;;;;;4855260;29;20030;-80
2023/02/18 08:36:30;;;;;;;4.80;3.25;;;13.20;82.20;;;;;;4858507;29;20371;-82
2023/02/18 08:38:57;;;;;;;4.70;2.65;;;13.20;82.20;;;;;;4856840;29;20037;-84
2023/02/18 08:41:23;;;;;;;3.92;3.03;;;13.20;82.20;;;;;;4855158;29;20034;-84
2023/02/18 08:43:49;;;;;;;5.07;3.28;;;13.20;82.20;;;;;;4838959;29;20034;-84
2023/02/18 08:46:18;;;;;;;4.35;2.85;;;13.20;82.20;;;;;;4838394;29;20109;-91
2023/02/18 08:48:44;;;;;;;4.82;3.35;;;13.20;82.20;;;;;;4839202;29;20517;-84
2023/02/18 08:51:23;;;;;;;4.15;2.78;;;13.20;82.20;;;;;;4859798;29;20508;-84
2023/02/18 08:53:49;;;;;;;5.20;3.38;;;13.20;82.30;;;;;;4858199;29;20021;-82
2023/02/18 08:56:16;;;;;;;5.63;3.40;;;13.20;82.20;;;;;;4831391;29;20033;-81
2023/02/18 08:58:42;;;;;;;4.47;3.17;;;13.20;82.30;;;;;;4875084;29;20037;-81
2023/02/18 09:01:10;;;;;;;6.03;3.75;;;13.20;82.20;;;;;;4855570;29;20030;-83
2023/02/18 09:03:36;;;;;;;6.45;4.32;;;13.20;82.30;;;;;;4861341;29;20033;-83
2023/02/18 09:06:03;;;;;;;5.25;3.67;;;13.20;82.30;;;;;;4853895;29;20033;-85
2023/02/18 09:08:31;;;;;;;5.75;3.90;;;13.20;82.30;;;;;;4843363;29;20145;-85
2023/02/18 09:11:06;;;;;;;5.90;3.83;;;13.20;82.20;;;;;;4843013;29;20133;-85
2023/02/18 09:13:45;;;;;;;5.72;4.05;;;13.20;82.20;;;;;;4842238;29;20044;-84
2023/02/18 09:16:17;;;;;;;5.93;3.85;;;13.20;82.20;;;;;;4843229;29;20708;-82
2023/02/18 09:18:43;;;;;;;6.72;4.00;;;13.20;82.20;;;;;;4879597;29;20113;-82
2023/02/18 09:21:12;;;;;;;6.88;3.88;;;13.20;82.20;;;;;;4857700;29;20037;-86
2023/02/18 09:23:39;;;;;;;6.03;3.90;;;13.20;82.20;;;;;;4842820;29;20112;-84
2023/02/18 09:26:06;;;;;;;5.38;3.72;;;13.20;82.20;;;;;;4826418;29;20182;-86
2023/02/18 09:28:33;;;;;;;5.57;3.38;;;13.20;82.20;;;;;;4845305;29;20048;-82
2023/02/18 09:31:07;;;;;;;5.10;3.30;;;13.20;82.20;;;;;;4845260;29;20041;-85
2023/02/18 09:33:38;;;;;;;6.22;3.42;;;13.20;82.20;;;;;;4859476;29;20033;-82
2023/02/18 09:36:04;;;;;;;5.68;3.53;;;13.20;82.10;;;;;;4844154;29;20034;-83
2023/02/18 09:38:31;;;;;;;5.55;3.33;;;13.20;82.10;;;;;;4864602;29;20107;-85
2023/02/18 09:41:00;;;;;;;5.75;3.60;;;13.20;82.10;;;;;;4860447;29;20122;-84
2023/02/18 09:43:46;;;;;;;5.60;3.42;;;13.20;82.20;;;;;;4864242;29;20479;-83
2023/02/18 09:46:31;;;;;;;4.80;3.20;;;13.20;82.20;;;;;;4863098;29;20028;-81
2023/02/18 09:48:59;;;;;;;5.53;3.30;;;13.20;82.20;;;;;;4854749;29;20064;-84
2023/02/18 09:51:25;;;;;;;5.43;3.22;;;13.20;82.20;;;;;;4850401;29;20125;-82
2023/02/18 09:53:51;;;;;;;4.60;2.88;;;13.20;82.20;;;;;;4865677;29;20197;-82
2023/02/18 09:56:27;;;;;;;4.57;2.80;;;13.10;82.20;;;;;;4860399;29;20101;-81
2023/02/18 09:58:56;;;;;;;5.68;2.90;;;13.20;82.30;;;;;;4843420;29;20064;-83
2023/02/18 10:01:42;;;;;;;3.72;2.83;;;13.10;82.20;;;;;;4884604;29;20478;-84
2023/02/18 10:04:24;;;;;;;3.80;2.70;;;13.10;82.30;;;;;;4866971;29;20040;-83
2023/02/18 10:06:53;;;;;;;3.65;2.42;;;13.10;82.20;;;;;;4862272;29;20032;-84
2023/02/18 10:09:28;;;;;;;5.00;2.83;;;13.10;82.20;;;;;;4866799;29;20033;-84
2023/02/18 10:12:19;;;;;;;4.93;2.97;;;13.10;82.30;;;;;;4857599;29;20085;-81
2023/02/18 10:14:53;;;;;;;3.75;2.50;;;13.10;82.30;;;;;;4855255;29;20041;-83
2023/02/18 10:17:22;;;;;;;3.67;2.85;;;13.10;82.30;;;;;;4856890;29;20025;-85
2023/02/18 10:19:49;;;;;;;4.63;2.50;;;13.10;82.70;;;;;;4860688;29;20026;-83
2023/02/18 10:22:17;;;;;;;4.55;2.42;;;13.10;82.30;;;;;;4843924;29;20029;-83
2023/02/18 10:24:57;;;;;;;3.33;2.25;;;13.10;82.30;;;;;;4843238;29;20486;-83
2023/02/18 10:27:31;;;;;;;4.50;2.40;;;13.10;82.30;;;;;;4851938;29;20052;-83
2023/02/18 10:30:20;;;;;;;3.55;2.40;;;13.10;82.30;;;;;;4847881;29;20030;-83
2023/02/18 10:32:50;;;;;;;3.55;2.10;;;13.10;82.30;;;;;;4860505;29;20046;-86
2023/02/18 10:35:22;;;;;;;4.20;2.08;;;13.10;82.30;;;;;;4857987;29;20036;-86
2023/02/18 10:37:50;;;;;;;4.30;2.42;;;13.10;82.30;;;;;;4863466;29;20037;-84
2023/02/18 10:41:09;;;;;;;4.18;2.20;;;13.10;82.30;;;;;;4842654;29;20041;-82
2023/02/18 10:43:51;;;;;;;2.78;2.10;;;13.10;82.40;;;;;;4856594;29;20030;-89
2023/02/18 10:46:45;;;;;;;3.13;2.10;;;13.10;82.40;;;;;;4854568;29;20035;-83
2023/02/18 10:49:35;;;;;;;3.30;1.90;;;13.00;82.30;;;;;;4860717;29;20046;-87
2023/02/18 10:52:05;;;;;;;4.07;2.00;;;13.00;82.40;;;;;;4841417;29;20487;-84
2023/02/18 10:55:09;;;;;;;3.05;1.67;;;13.00;82.30;;;;;;4855972;29;20767;-82
2023/02/18 10:57:49;;;;;;;3.92;2.20;;;13.00;82.40;;;;;;4841133;29;20037;-84
2023/02/18 11:11:08;;;;;;;2.60;1.80;;;13.00;82.40;;;;;;4841507;29;20054;-85
2023/02/18 11:13:33;;;;;;;4.45;2.00;;;13.00;82.40;;;;;;4828359;29;20084;-85
2023/02/18 11:16:08;;;;;;;3.88;1.90;;;13.00;82.40;;;;;;4812956;29;20030;-85
2023/02/18 11:18:43;;;;;;;3.95;2.05;;;13.00;82.50;;;;;;4843205;29;20045;-83
2023/02/18 11:21:22;;;;;;;4.00;1.85;;;13.00;82.40;;;;;;4842858;29;20041;-91
2023/02/18 11:23:53;;;;;;;2.28;1.80;;;13.00;82.40;;;;;;4843607;29;20042;-83
2023/02/18 11:26:29;;;;;;;4.30;2.38;;;13.00;82.40;;;;;;4843976;29;20038;-84
2023/02/18 11:29:04;;;;;;;4.07;1.95;;;13.00;82.40;;;;;;4842200;29;20034;-86
2023/02/18 11:31:43;;;;;;;2.38;1.70;;;13.00;82.40;;;;;;4827762;29;20049;-84
2023/02/18 11:34:17;;;;;;;3.85;2.00;;;13.00;82.50;;;;;;4842651;29;20030;-84
2023/02/18 11:36:43;;;;;;;2.55;1.63;;;13.00;82.40;;;;;;4827662;29;20061;-83
2023/02/18 11:39:21;;;;;;;2.70;1.80;;;13.00;82.40;;;;;;4827522;29;20109;-84
2023/02/18 11:41:59;;;;;;;2.78;1.70;;;13.00;82.50;;;;;;4842584;29;20040;-84
2023/02/18 11:44:36;;;;;;;2.92;1.85;;;13.00;82.40;;;;;;4842993;29;20034;-78
2023/02/18 11:47:18;;;;;;;4.88;2.00;;;13.00;82.40;;;;;;4843128;29;20050;-83
2023/02/18 11:50:34;;;;;;;6.75;2.22;;;13.00;82.50;;;;;;4843745;29;20026;-87
2023/02/18 11:53:49;;;;;;;3.20;1.80;;;13.00;82.50;;;;;;4833343;29;20509;-85
2023/02/18 11:57:11;;;;;;;3.33;1.70;;;13.00;82.40;;;;;;4848606;29;20033;-85
2023/02/18 11:59:46;;;;;;;3.90;2.00;;;13.00;82.40;;;;;;4843647;29;20046;-84
2023/02/18 12:02:40;;;;;;;3.25;1.80;;;13.00;82.40;;;;;;4843954;29;20170;-84
2023/02/18 12:05:27;;;;;;;2.85;1.90;;;13.00;82.50;;;;;;4827748;29;20501;-83
2023/02/18 12:08:11;;;;;;;4.10;1.98;;;13.00;82.50;;;;;;4812539;29;20045;-83
2023/02/18 12:11:05;;;;;;;2.58;1.98;;;13.00;82.50;;;;;;4842617;29;20057;-83
2023/02/18 12:13:49;;;;;;;2.95;1.90;;;13.00;82.50;;;;;;4840530;29;20041;-82
2023/02/18 12:16:52;;;;;;;3.10;2.20;;;13.00;82.40;;;;;;4842608;29;20038;-84
2023/02/18 12:19:30;;;;;;;3.15;1.90;;;13.00;82.50;;;;;;4841540;29;20303;-80
2023/02/18 12:22:01;;;;;;;2.55;1.73;;;13.00;82.50;;;;;;4826454;29;20061;-80
2023/02/18 12:24:42;;;;;;;4.72;2.20;;;13.00;82.50;;;;;;4842761;29;20034;-82
2023/02/18 12:27:29;;;;;;;2.22;1.80;;;13.00;82.60;;;;;;4826756;29;20106;-81
2023/02/18 12:30:13;;;;;;;3.95;1.77;;;13.00;82.50;;;;;;4842029;29;20034;-81
2023/02/18 12:32:45;;;;;;;2.88;2.10;;;13.00;82.60;;;;;;4842136;29;20045;-81
2023/02/18 12:35:27;;;;;;;2.83;1.95;;;13.00;82.50;;;;;;4827142;29;20040;-83
2023/02/18 12:38:20;;;;;;;3.15;2.30;;;13.00;82.60;;;;;;4845581;29;20046;-82
2023/02/18 12:41:01;;;;;;;3.35;2.08;;;13.10;82.60;;;;;;4845765;29;20090;-82
2023/02/18 12:43:45;;;;;;;3.13;2.05;;;13.10;82.60;;;;;;4845950;29;20378;-82
2023/02/18 12:46:25;;;;;;;4.20;2.20;;;13.00;82.50;;;;;;4845680;29;20040;-81
2023/02/18 12:49:09;;;;;;;3.10;2.17;;;13.10;82.60;;;;;;4846692;29;20030;-80
2023/02/18 12:51:56;;;;;;;2.85;1.88;;;13.10;82.60;;;;;;4830410;29;20038;-81
2023/02/18 12:54:40;;;;;;;5.07;2.33;;;13.10;82.60;;;;;;4830381;29;20752;-83
2023/02/18 12:57:17;;;;;;;3.60;2.10;;;13.10;82.60;;;;;;4830072;29;20478;-82
2023/02/18 13:00:10;;;;;;;3.25;2.13;;;13.10;82.60;;;;;;4831306;29;20085;-83
2023/02/18 13:03:01;;;;;;;4.03;2.20;;;13.00;82.60;;;;;;4831451;29;20041;-82
2023/02/18 13:05:37;;;;;;;5.25;2.67;;;13.10;82.60;;;;;;4845481;29;20034;-85
2023/02/18 13:08:40;;;;;;;5.85;2.90;;;13.10;82.60;;;;;;4829503;29;20052;-84
2023/02/18 13:11:18;;;;;;;3.90;2.00;;;13.00;82.60;;;;;;4845667;29;20046;-82
2023/02/18 13:13:57;;;;;;;3.20;2.05;;;13.10;82.60;;;;;;4829871;29;20061;-82
2023/02/18 13:16:25;;;;;;;3.63;2.33;;;13.10;82.60;;;;;;4829924;29;20083;-83
2023/02/18 13:19:04;;;;;;;5.40;2.63;;;13.10;82.60;;;;;;4845113;29;20034;-83